Time;durP1;ratioP1;P1;durP2;ratioP2;P2;SDS_P1;SDS_P2;PMS_P1;PMS_P2;Temp;Humidity;BMP_temperature;BMP_pressure;BME280_temperature;BME280_humidity;BME280_pressure;Samples;Min_cycle;Max_cycle;Signal;HPM_P1;HPM_P2
2023/09/20 00:00:54;;;;;;;9.35;4.93;;;;;;;;;;6044445;23;20167;-94
2023/09/20 00:04:02;;;;;;;8.13;4.43;;;;;;;;;;6043608;23;20163;-92
2023/09/20 00:07:09;;;;;;;11.73;4.95;;;;;;;;;;6044045;23;20196;-93
2023/09/20 00:10:18;;;;;;;10.77;4.97;;;;;;;;;;6044580;23;20199;-93
2023/09/20 00:13:23;;;;;;;8.15;4.30;;;;;;;;;;6061349;23;20192;-92
2023/09/20 00:16:29;;;;;;;6.63;4.53;;;;;;;;;;6044992;23;20155;-91
2023/09/20 00:19:34;;;;;;;6.25;4.53;;;;;;;;;;6045238;23;20200;-92
2023/09/20 00:22:40;;;;;;;8.13;4.70;;;;;;;;;;6060896;23;20179;-90
2023/09/20 00:25:49;;;;;;;7.50;4.22;;;;;;;;;;6044153;23;20203;-92
2023/09/20 00:28:54;;;;;;;10.75;4.68;;;;;;;;;;6061855;23;20202;-92
2023/09/20 00:32:01;;;;;;;10.05;4.45;;;;;;;;;;6044698;23;20174;-91
2023/09/20 00:35:07;;;;;;;8.68;4.20;;;;;;;;;;6061524;23;20159;-92
2023/09/20 00:38:16;;;;;;;6.07;4.10;;;;;;;;;;6055798;23;20171;-93
2023/09/20 00:41:22;;;;;;;6.25;4.05;;;;;;;;;;6038462;23;20627;-93
2023/09/20 00:44:27;;;;;;;8.57;4.10;;;;;;;;;;6038983;23;20208;-95
2023/09/20 00:47:34;;;;;;;6.75;3.80;;;;;;;;;;6057029;23;20174;-91
2023/09/20 00:50:41;;;;;;;6.75;4.28;;;;;;;;;;6067236;23;20189;-93
2023/09/20 00:53:46;;;;;;;7.72;4.03;;;;;;;;;;6083739;23;20520;-93
2023/09/20 00:56:53;;;;;;;7.80;4.50;;;;;;;;;;6083471;23;20183;-94
2023/09/20 00:59:58;;;;;;;10.55;4.50;;;;;;;;;;6067125;23;20170;-93
2023/09/20 01:03:03;;;;;;;6.10;4.10;;;;;;;;;;6087931;23;20623;-91
2023/09/20 01:06:14;;;;;;;6.25;4.65;;;;;;;;;;6089671;23;20159;-89
2023/09/20 01:09:23;;;;;;;6.95;4.15;;;;;;;;;;6071133;23;20199;-91
2023/09/20 01:12:35;;;;;;;5.93;3.97;;;;;;;;;;6087411;23;20187;-92
2023/09/20 01:15:41;;;;;;;5.82;3.70;;;;;;;;;;6087346;23;20466;-91
2023/09/20 01:18:46;;;;;;;5.65;3.88;;;;;;;;;;6086772;23;20662;-93
2023/09/20 01:21:53;;;;;;;5.70;3.92;;;;;;;;;;6085926;23;20154;-92
2023/09/20 01:24:58;;;;;;;5.30;3.50;;;;;;;;;;6087215;23;20332;-91
2023/09/20 01:28:05;;;;;;;7.80;3.72;;;;;;;;;;6086829;23;20224;-92
2023/09/20 01:31:10;;;;;;;9.98;4.95;;;;;;;;;;6087064;23;20159;-91
2023/09/20 01:34:16;;;;;;;5.78;4.22;;;;;;;;;;6086850;23;20220;-92
2023/09/20 01:37:25;;;;;;;8.10;4.60;;;;;;;;;;6086940;23;20171;-90
2023/09/20 01:40:33;;;;;;;10.25;4.97;;;;;;;;;;6084987;23;20169;-94
2023/09/20 01:43:41;;;;;;;6.30;4.32;;;;;;;;;;6085929;23;20204;-91
2023/09/20 01:46:48;;;;;;;8.27;4.55;;;;;;;;;;6085171;23;20190;-92
2023/09/20 01:49:55;;;;;;;11.20;5.43;;;;;;;;;;6083979;23;20181;-93
2023/09/20 01:53:05;;;;;;;10.52;6.18;;;;;;;;;;6086380;23;20223;-92
2023/09/20 01:56:11;;;;;;;13.02;5.22;;;;;;;;;;6083802;23;20174;-92
2023/09/20 01:59:16;;;;;;;9.50;5.00;;;;;;;;;;6085013;23;20169;-92
2023/09/20 02:02:22;;;;;;;8.85;4.75;;;;;;;;;;6083477;23;20175;-93
2023/09/20 02:05:28;;;;;;;7.63;4.95;;;;;;;;;;6083555;23;20170;-93
2023/09/20 02:08:35;;;;;;;7.80;4.88;;;;;;;;;;6083122;23;20174;-93
2023/09/20 02:11:41;;;;;;;7.85;5.10;;;;;;;;;;6082954;23;20158;-92
2023/09/20 02:14:46;;;;;;;7.25;4.70;;;;;;;;;;6084192;23;20166;-93
2023/09/20 02:17:52;;;;;;;11.90;5.45;;;;;;;;;;6083506;23;20170;-93
2023/09/20 02:20:57;;;;;;;8.02;5.10;;;;;;;;;;6084979;23;20552;-91
2023/09/20 02:24:05;;;;;;;14.98;6.15;;;;;;;;;;6085071;23;20195;-95
2023/09/20 02:27:10;;;;;;;11.15;5.45;;;;;;;;;;6084173;23;20178;-92
2023/09/20 02:30:19;;;;;;;14.48;5.18;;;;;;;;;;6084149;23;20264;-94
2023/09/20 02:33:26;;;;;;;10.27;5.30;;;;;;;;;;6082705;23;20158;-92
2023/09/20 02:36:31;;;;;;;10.02;6.07;;;;;;;;;;6084203;23;20645;-93
2023/09/20 02:39:39;;;;;;;8.23;5.38;;;;;;;;;;6067722;23;20219;-88
2023/09/20 02:42:44;;;;;;;22.08;5.72;;;;;;;;;;6083614;23;20190;-91
2023/09/20 02:45:50;;;;;;;13.23;5.88;;;;;;;;;;6066117;23;20170;-90
2023/09/20 02:48:56;;;;;;;7.72;5.28;;;;;;;;;;6082236;23;20163;-93
2023/09/20 02:52:02;;;;;;;13.27;4.75;;;;;;;;;;6082628;23;20162;-92
2023/09/20 02:55:11;;;;;;;17.23;5.32;;;;;;;;;;6082419;23;20175;-90
2023/09/20 02:58:17;;;;;;;10.48;5.60;;;;;;;;;;6084158;23;20508;-92
2023/09/20 03:01:24;;;;;;;11.80;5.47;;;;;;;;;;6083940;23;20165;-92
2023/09/20 03:04:30;;;;;;;18.60;6.05;;;;;;;;;;6085532;23;20230;-94
2023/09/20 03:07:36;;;;;;;14.35;6.05;;;;;;;;;;6084810;23;20187;-93
2023/09/20 03:10:43;;;;;;;11.75;5.88;;;;;;;;;;6083372;23;20247;-92
2023/09/20 03:13:49;;;;;;;16.77;6.68;;;;;;;;;;6085279;23;20170;-93
2023/09/20 03:16:54;;;;;;;12.02;6.30;;;;;;;;;;6083919;23;20295;-91
2023/09/20 03:19:59;;;;;;;11.27;6.10;;;;;;;;;;6084898;23;20675;-91
2023/09/20 03:23:05;;;;;;;11.20;5.95;;;;;;;;;;6086084;23;20559;-92
2023/09/20 03:26:16;;;;;;;10.43;5.78;;;;;;;;;;6084068;23;20225;-91
2023/09/20 03:29:23;;;;;;;27.27;6.00;;;;;;;;;;6085172;23;20170;-93
2023/09/20 03:32:29;;;;;;;15.82;6.00;;;;;;;;;;6068412;23;20174;-93
2023/09/20 03:38:58;;;;;;;18.90;5.93;;;;;;;;;;6084692;23;20171;-91
2023/09/20 03:42:11;;;;;;;13.13;6.05;;;;;;;;;;6085395;23;20178;-90
2023/09/20 03:45:17;;;;;;;14.88;6.80;;;;;;;;;;6084833;23;20197;-92
2023/09/20 03:48:22;;;;;;;13.23;6.03;;;;;;;;;;6055908;23;20599;-91
2023/09/20 03:51:27;;;;;;;16.65;6.57;;;;;;;;;;6054888;23;20202;-94
2023/09/20 03:54:33;;;;;;;18.23;6.18;;;;;;;;;;6055622;23;20167;-93
2023/09/20 03:57:40;;;;;;;10.88;6.53;;;;;;;;;;6055216;23;20172;-92
2023/09/20 04:00:47;;;;;;;12.63;5.93;;;;;;;;;;6054795;23;20226;-93
2023/09/20 04:03:53;;;;;;;10.40;5.97;;;;;;;;;;6054095;23;20187;-92
2023/09/20 04:06:59;;;;;;;10.07;5.60;;;;;;;;;;6054351;23;20172;-91
2023/09/20 04:10:05;;;;;;;9.95;5.60;;;;;;;;;;6054596;23;20185;-94
2023/09/20 04:13:11;;;;;;;11.93;6.22;;;;;;;;;;6053586;23;20180;-91
2023/09/20 04:16:16;;;;;;;12.52;6.35;;;;;;;;;;6055558;23;20176;-91
2023/09/20 04:19:22;;;;;;;9.48;5.88;;;;;;;;;;6053953;23;20182;-93
2023/09/20 04:22:30;;;;;;;10.73;5.07;;;;;;;;;;6056001;23;20167;-93
2023/09/20 04:25:35;;;;;;;9.50;4.95;;;;;;;;;;6054611;23;20522;-91
2023/09/20 04:28:42;;;;;;;8.38;5.20;;;;;;;;;;6053084;23;20163;-90
2023/09/20 04:31:49;;;;;;;7.95;5.25;;;;;;;;;;6053569;23;20183;-93
2023/09/20 04:34:56;;;;;;;11.57;5.70;;;;;;;;;;6054837;23;20175;-95
2023/09/20 04:38:02;;;;;;;9.40;5.47;;;;;;;;;;6055792;23;20171;-92
2023/09/20 04:41:14;;;;;;;9.00;5.85;;;;;;;;;;6054573;23;20227;-95
2023/09/20 04:44:23;;;;;;;15.30;6.15;;;;;;;;;;6052773;23;20251;-92
2023/09/20 04:47:31;;;;;;;13.10;7.45;;;;;;;;;;6072112;23;20215;-93
2023/09/20 04:50:37;;;;;;;13.45;7.10;;;;;;;;;;6083271;23;20202;-90
2023/09/20 04:53:45;;;;;;;13.10;7.20;;;;;;;;;;6085152;23;20178;-90
2023/09/20 04:56:51;;;;;;;12.10;7.20;;;;;;;;;;6086082;23;20246;-92
2023/09/20 05:00:26;;;;;;;12.65;7.10;;;;;;;;;;6085509;23;20154;-91
2023/09/20 05:03:36;;;;;;;15.38;7.10;;;;;;;;;;6088055;23;20220;-91
2023/09/20 05:06:42;;;;;;;9.32;5.88;;;;;;;;;;6071494;23;20212;-92
2023/09/20 05:09:50;;;;;;;14.40;6.22;;;;;;;;;;6086539;23;20172;-93
2023/09/20 05:12:58;;;;;;;11.13;6.68;;;;;;;;;;6089234;23;20154;-93
2023/09/20 05:16:04;;;;;;;11.82;6.30;;;;;;;;;;6086138;23;20177;-92
2023/09/20 05:22:46;;;;;;;14.13;6.50;;;;;;;;;;6067372;23;20360;-91
2023/09/20 05:25:53;;;;;;;14.13;6.80;;;;;;;;;;6085925;23;20196;-90
2023/09/20 05:28:59;;;;;;;12.52;6.53;;;;;;;;;;6086634;23;20507;-91
2023/09/20 05:32:05;;;;;;;10.73;6.57;;;;;;;;;;6084580;23;20250;-92
2023/09/20 05:35:11;;;;;;;13.70;7.68;;;;;;;;;;6083577;23;20178;-90
2023/09/20 05:38:32;;;;;;;10.68;6.22;;;;;;;;;;6086395;23;20158;-90
2023/09/20 05:41:39;;;;;;;10.73;6.50;;;;;;;;;;6084683;23;20208;-91
2023/09/20 05:44:45;;;;;;;9.80;6.10;;;;;;;;;;6082852;23;20179;-93
2023/09/20 05:47:50;;;;;;;15.50;6.88;;;;;;;;;;6081764;23;20210;-91
2023/09/20 05:50:56;;;;;;;13.07;6.97;;;;;;;;;;6080850;23;20194;-93
2023/09/20 05:54:04;;;;;;;13.88;7.13;;;;;;;;;;6083546;23;20154;-91
2023/09/20 05:57:12;;;;;;;15.45;7.95;;;;;;;;;;6084031;23;20196;-92
2023/09/20 06:00:22;;;;;;;15.93;7.78;;;;;;;;;;6085088;23;20174;-92
2023/09/20 06:03:28;;;;;;;14.27;8.40;;;;;;;;;;6083685;23;20501;-91
2023/09/20 06:06:33;;;;;;;14.40;8.27;;;;;;;;;;6085001;23;20192;-93
2023/09/20 06:09:38;;;;;;;15.35;8.63;;;;;;;;;;6082461;23;20169;-92
2023/09/20 06:12:45;;;;;;;15.65;8.65;;;;;;;;;;6083600;23;20199;-93
2023/09/20 06:15:50;;;;;;;13.40;8.52;;;;;;;;;;6084281;23;20177;-91
2023/09/20 06:18:59;;;;;;;15.88;8.13;;;;;;;;;;6085423;23;20176;-93
2023/09/20 06:22:05;;;;;;;19.15;8.52;;;;;;;;;;6084393;23;20162;-92
2023/09/20 06:25:12;;;;;;;14.38;8.02;;;;;;;;;;6082739;23;20174;-91
2023/09/20 06:28:19;;;;;;;11.98;7.47;;;;;;;;;;6083942;23;20288;-92
2023/09/20 06:31:25;;;;;;;15.15;7.97;;;;;;;;;;6084326;23;20201;-90
2023/09/20 06:34:30;;;;;;;14.68;7.93;;;;;;;;;;6082621;23;20166;-94
2023/09/20 06:37:36;;;;;;;14.43;7.75;;;;;;;;;;6086216;23;20171;-91
2023/09/20 06:40:41;;;;;;;14.88;8.30;;;;;;;;;;6084094;23;20247;-94
2023/09/20 06:43:48;;;;;;;18.42;9.93;;;;;;;;;;6086306;23;20242;-93
2023/09/20 06:46:54;;;;;;;17.80;9.35;;;;;;;;;;6085975;23;20190;-91
2023/09/20 06:50:02;;;;;;;22.60;9.30;;;;;;;;;;6084637;23;20174;-93
2023/09/20 06:53:10;;;;;;;21.38;10.00;;;;;;;;;;6083954;23;20149;-91
2023/09/20 06:56:17;;;;;;;16.55;9.35;;;;;;;;;;6082769;23;20227;-94
2023/09/20 06:59:26;;;;;;;16.75;8.98;;;;;;;;;;6086788;23;20174;-92
2023/09/20 07:02:32;;;;;;;15.05;8.43;;;;;;;;;;6087404;23;20204;-90
2023/09/20 07:05:37;;;;;;;16.88;9.05;;;;;;;;;;6086164;23;20174;-94
2023/09/20 07:08:43;;;;;;;14.23;8.48;;;;;;;;;;6087524;23;20182;-91
2023/09/20 07:11:50;;;;;;;14.82;8.55;;;;;;;;;;6090130;23;20442;-91
2023/09/20 07:14:59;;;;;;;17.08;7.97;;;;;;;;;;6088556;23;20170;-92
2023/09/20 07:18:11;;;;;;;13.60;8.20;;;;;;;;;;6084860;23;20218;-91
2023/09/20 07:21:17;;;;;;;17.60;8.48;;;;;;;;;;6087354;23;20211;-92
2023/09/20 07:24:24;;;;;;;17.30;8.27;;;;;;;;;;6088583;23;20150;-91
2023/09/20 07:27:32;;;;;;;15.93;8.80;;;;;;;;;;6073843;23;20191;-92
2023/09/20 07:30:44;;;;;;;16.02;8.68;;;;;;;;;;6074267;23;20162;-93
2023/09/20 07:33:50;;;;;;;17.90;8.10;;;;;;;;;;6070181;23;20215;-92
2023/09/20 07:36:57;;;;;;;18.20;8.80;;;;;;;;;;6089148;23;20175;-92
2023/09/20 07:40:03;;;;;;;13.77;7.70;;;;;;;;;;6088031;23;20187;-89
2023/09/20 07:43:08;;;;;;;15.15;7.63;;;;;;;;;;6084620;23;20203;-92
2023/09/20 07:46:20;;;;;;;16.08;7.68;;;;;;;;;;6085247;23;20222;-92
2023/09/20 07:49:26;;;;;;;13.00;7.85;;;;;;;;;;6084505;23;20173;-89
2023/09/20 07:52:33;;;;;;;12.20;6.40;;;;;;;;;;6084318;23;20189;-90
2023/09/20 07:55:45;;;;;;;12.65;6.22;;;;;;;;;;6086248;23;20170;-92
2023/09/20 07:58:53;;;;;;;14.70;6.43;;;;;;;;;;6068007;23;20238;-91
2023/09/20 08:02:02;;;;;;;12.95;6.65;;;;;;;;;;6085389;23;20647;-94
2023/09/20 08:05:09;;;;;;;11.70;6.72;;;;;;;;;;6067628;23;20166;-91
2023/09/20 08:08:17;;;;;;;11.30;6.28;;;;;;;;;;6072095;23;20193;-94
2023/09/20 08:11:23;;;;;;;12.15;6.25;;;;;;;;;;6072150;23;20182;-90
2023/09/20 08:14:30;;;;;;;11.43;5.88;;;;;;;;;;6067811;23;20220;-92
2023/09/20 08:21:00;;;;;;;13.35;5.38;;;;;;;;;;6086890;23;20162;-92
2023/09/20 15:56:07;;;;;;;4.28;1.45;;;;;;;;;;6097882;23;20285;-92
2023/09/20 16:05:05;;;;;;;2.38;1.20;;;;;;;;;;6130259;23;20273;-94
2023/09/20 16:08:11;;;;;;;7.30;1.30;;;;;;;;;;6122425;23;20181;-92
2023/09/20 16:11:17;;;;;;;2.38;1.20;;;;;;;;;;6121509;23;20506;-92
2023/09/20 16:14:23;;;;;;;6.65;1.48;;;;;;;;;;6122487;23;20181;-89
2023/09/20 16:17:28;;;;;;;6.18;1.08;;;;;;;;;;6123579;23;20268;-91
2023/09/20 16:20:34;;;;;;;3.50;1.30;;;;;;;;;;6122486;23;20148;-92
2023/09/20 16:23:40;;;;;;;5.63;1.40;;;;;;;;;;6126246;23;20197;-90
2023/09/20 16:26:50;;;;;;;3.10;1.08;;;;;;;;;;6125789;23;20170;-91
2023/09/20 16:29:55;;;;;;;2.65;1.17;;;;;;;;;;6123819;23;20197;-91
2023/09/20 16:33:01;;;;;;;3.47;1.23;;;;;;;;;;6125918;23;20252;-91
2023/09/20 16:36:07;;;;;;;3.08;1.38;;;;;;;;;;6126372;23;20210;-92
2023/09/20 16:39:11;;;;;;;4.40;1.38;;;;;;;;;;6127044;23;20173;-93
2023/09/20 16:42:18;;;;;;;5.30;1.40;;;;;;;;;;6123928;23;20177;-91
2023/09/20 16:45:23;;;;;;;4.45;1.42;;;;;;;;;;6122030;23;20254;-91
2023/09/20 16:48:29;;;;;;;4.25;1.40;;;;;;;;;;6124315;23;20168;-89
2023/09/20 16:51:35;;;;;;;5.00;1.38;;;;;;;;;;6124334;23;20294;-92
2023/09/20 16:54:42;;;;;;;5.38;1.60;;;;;;;;;;6124594;23;20178;-91
2023/09/20 16:57:58;;;;;;;5.60;1.83;;;;;;;;;;6123937;23;20173;-91
2023/09/20 17:01:03;;;;;;;6.05;1.90;;;;;;;;;;6123586;23;20239;-92
2023/09/20 17:04:09;;;;;;;9.95;1.83;;;;;;;;;;6112667;23;20205;-89
2023/09/20 17:07:15;;;;;;;3.78;1.80;;;;;;;;;;6113702;23;20172;-92
2023/09/20 17:10:22;;;;;;;7.03;2.88;;;;;;;;;;6111733;23;20178;-91
2023/09/20 17:13:29;;;;;;;5.93;1.98;;;;;;;;;;6112032;23;20277;-92
2023/09/20 17:16:36;;;;;;;6.00;2.05;;;;;;;;;;6111940;23;20170;-89
2023/09/20 17:19:44;;;;;;;4.38;1.60;;;;;;;;;;6108436;23;20169;-91
2023/09/20 17:22:49;;;;;;;4.20;1.70;;;;;;;;;;6108158;23;20277;-89
2023/09/20 17:25:57;;;;;;;7.68;4.05;;;;;;;;;;6110104;23;20224;-92
2023/09/20 17:29:09;;;;;;;5.45;3.22;;;;;;;;;;6111779;23;20186;-90
2023/09/20 17:32:15;;;;;;;6.65;1.52;;;;;;;;;;6096314;23;20197;-91
2023/09/20 17:35:20;;;;;;;4.30;2.13;;;;;;;;;;6113697;23;20173;-89
2023/09/20 17:38:27;;;;;;;6.25;2.00;;;;;;;;;;6111091;23;20170;-90
2023/09/20 17:41:32;;;;;;;4.25;2.05;;;;;;;;;;6113176;23;20187;-92
2023/09/20 17:44:40;;;;;;;6.57;2.03;;;;;;;;;;6113229;23;20174;-93
2023/09/20 17:47:46;;;;;;;3.75;1.95;;;;;;;;;;6113937;23;20549;-92
2023/09/20 17:50:52;;;;;;;6.30;2.03;;;;;;;;;;6111711;23;20173;-88
2023/09/20 17:53:58;;;;;;;6.28;1.92;;;;;;;;;;6110884;23;20605;-91
2023/09/20 17:57:03;;;;;;;9.05;1.85;;;;;;;;;;6112123;23;20256;-93
2023/09/20 18:00:13;;;;;;;5.60;1.77;;;;;;;;;;6111716;23;20246;-93
2023/09/20 18:03:20;;;;;;;9.88;2.13;;;;;;;;;;6113474;23;20294;-89
2023/09/20 18:06:25;;;;;;;3.40;1.80;;;;;;;;;;6124440;23;20169;-90
2023/09/20 18:09:30;;;;;;;6.05;2.00;;;;;;;;;;6122997;23;20309;-90
2023/09/20 18:12:37;;;;;;;6.93;2.20;;;;;;;;;;6123396;23;20204;-90
2023/09/20 18:15:45;;;;;;;4.13;1.92;;;;;;;;;;6122750;23;20168;-91
2023/09/20 18:18:53;;;;;;;4.43;2.13;;;;;;;;;;6122994;23;20226;-89
2023/09/20 18:21:58;;;;;;;9.25;2.17;;;;;;;;;;6121440;23;20162;-90
2023/09/20 18:25:05;;;;;;;6.57;2.20;;;;;;;;;;6123686;23;20153;-89
2023/09/20 18:28:14;;;;;;;7.90;2.42;;;;;;;;;;6125289;23;20217;-90
2023/09/20 18:31:23;;;;;;;4.65;2.35;;;;;;;;;;6128279;23;20172;-92
2023/09/20 18:34:31;;;;;;;4.57;2.67;;;;;;;;;;6128661;23;20209;-92
2023/09/20 18:37:37;;;;;;;9.27;4.85;;;;;;;;;;6126271;23;20218;-89
2023/09/20 18:40:43;;;;;;;6.07;2.55;;;;;;;;;;6128174;23;20189;-90
2023/09/20 18:43:49;;;;;;;8.23;2.70;;;;;;;;;;6128105;23;20221;-91
2023/09/20 18:46:58;;;;;;;3.67;2.47;;;;;;;;;;6130285;23;20169;-88
2023/09/20 18:50:06;;;;;;;8.38;2.22;;;;;;;;;;6129496;23;20581;-91
2023/09/20 18:53:11;;;;;;;9.50;2.55;;;;;;;;;;6128991;23;20249;-92
2023/09/20 18:56:20;;;;;;;6.85;2.67;;;;;;;;;;6130188;23;20153;-91
2023/09/20 18:59:27;;;;;;;5.15;2.42;;;;;;;;;;6143738;23;20217;-92
2023/09/20 19:02:35;;;;;;;5.90;2.92;;;;;;;;;;6125574;23;20172;-93
2023/09/20 19:05:42;;;;;;;6.93;2.90;;;;;;;;;;6124268;23;20177;-92
2023/09/20 19:08:49;;;;;;;4.95;2.90;;;;;;;;;;6124818;23;20588;-90
2023/09/20 19:11:54;;;;;;;7.20;3.30;;;;;;;;;;6124566;23;20202;-90
2023/09/20 19:15:00;;;;;;;7.13;3.00;;;;;;;;;;6126563;23;20181;-92
2023/09/20 19:18:07;;;;;;;6.68;3.90;;;;;;;;;;6125367;23;20169;-92
2023/09/20 19:21:14;;;;;;;7.80;3.42;;;;;;;;;;6127251;23;20182;-87
2023/09/20 19:24:23;;;;;;;5.63;2.80;;;;;;;;;;6132284;23;20190;-87
2023/09/20 19:27:30;;;;;;;8.68;3.38;;;;;;;;;;6112349;23;20153;-92
2023/09/20 19:30:37;;;;;;;7.10;2.80;;;;;;;;;;6130820;23;20189;-91
2023/09/20 19:33:46;;;;;;;7.03;2.88;;;;;;;;;;6108792;23;20581;-88
2023/09/20 19:36:52;;;;;;;7.63;3.35;;;;;;;;;;6128868;23;20228;-91
2023/09/20 19:39:59;;;;;;;5.10;2.72;;;;;;;;;;6130161;23;20169;-89
2023/09/20 19:43:07;;;;;;;7.00;2.85;;;;;;;;;;6124565;23;20169;-90
2023/09/20 19:46:14;;;;;;;6.32;2.83;;;;;;;;;;6144566;23;20172;-90
2023/09/20 19:49:24;;;;;;;7.55;2.80;;;;;;;;;;6126251;23;20268;-91
2023/09/20 19:52:30;;;;;;;6.00;3.03;;;;;;;;;;6127440;23;20242;-93
2023/09/20 19:55:39;;;;;;;5.63;2.67;;;;;;;;;;6123217;23;20170;-89
2023/09/20 19:58:45;;;;;;;7.60;3.03;;;;;;;;;;6125728;23;20157;-90
2023/09/20 20:01:51;;;;;;;5.68;2.90;;;;;;;;;;6124397;23;20173;-94
2023/09/20 20:04:57;;;;;;;7.18;3.08;;;;;;;;;;6122623;23;20516;-91
2023/09/20 20:08:05;;;;;;;6.35;2.50;;;;;;;;;;6122691;23;20189;-92
2023/09/20 20:11:11;;;;;;;10.02;3.53;;;;;;;;;;6121668;23;20165;-92
2023/09/20 20:14:16;;;;;;;7.07;3.35;;;;;;;;;;6120963;23;20213;-90
2023/09/20 20:17:21;;;;;;;6.32;3.10;;;;;;;;;;6125374;23;20193;-91
2023/09/20 20:20:28;;;;;;;9.93;4.45;;;;;;;;;;6124310;23;20173;-92
2023/09/20 20:23:36;;;;;;;6.70;3.25;;;;;;;;;;6123770;23;20168;-89
2023/09/20 20:26:43;;;;;;;10.70;2.97;;;;;;;;;;6128288;23;20173;-89
2023/09/20 20:29:50;;;;;;;5.70;3.25;;;;;;;;;;6125552;23;20173;-91
2023/09/20 20:32:56;;;;;;;5.70;3.00;;;;;;;;;;6123915;23;20224;-90
2023/09/20 20:36:07;;;;;;;8.52;3.67;;;;;;;;;;6123830;23;20172;-92
2023/09/20 20:39:13;;;;;;;7.55;3.40;;;;;;;;;;6124675;23;20178;-89
2023/09/20 20:42:20;;;;;;;7.50;3.33;;;;;;;;;;6122695;23;20506;-93
2023/09/20 20:45:25;;;;;;;11.65;3.60;;;;;;;;;;6122717;23;20173;-90
2023/09/20 20:48:31;;;;;;;9.32;3.35;;;;;;;;;;6122534;23;20219;-92
2023/09/20 20:51:40;;;;;;;9.77;3.42;;;;;;;;;;6124202;23;20193;-90
2023/09/20 20:54:45;;;;;;;9.50;3.80;;;;;;;;;;6123168;23;20202;-89
2023/09/20 20:57:51;;;;;;;10.10;3.53;;;;;;;;;;6125230;23;20594;-94
2023/09/20 21:00:57;;;;;;;15.65;6.60;;;;;;;;;;6121388;23;20256;-90
2023/09/20 21:04:04;;;;;;;8.25;4.20;;;;;;;;;;6121558;23;20192;-87
2023/09/20 21:07:10;;;;;;;8.63;4.07;;;;;;;;;;6121534;23;20202;-93
2023/09/20 21:10:18;;;;;;;8.52;3.60;;;;;;;;;;6122373;23;20244;-90
2023/09/20 21:13:23;;;;;;;7.45;3.97;;;;;;;;;;6121119;23;20197;-93
2023/09/20 21:16:30;;;;;;;8.02;3.35;;;;;;;;;;6122918;23;20243;-90
2023/09/20 21:19:36;;;;;;;12.13;3.47;;;;;;;;;;6121580;23;20177;-88
2023/09/20 21:22:44;;;;;;;8.13;3.50;;;;;;;;;;6122311;23;20172;-94
2023/09/20 21:25:49;;;;;;;8.40;3.42;;;;;;;;;;6122601;23;20173;-93
2023/09/20 21:28:56;;;;;;;8.73;3.50;;;;;;;;;;6122519;23;20256;-93
2023/09/20 21:32:02;;;;;;;9.45;3.63;;;;;;;;;;6120279;23;20177;-94
2023/09/20 21:35:09;;;;;;;10.63;3.75;;;;;;;;;;6120773;23;20173;-90
2023/09/20 21:38:16;;;;;;;4.93;2.88;;;;;;;;;;6119334;23;20168;-94
2023/09/20 21:41:21;;;;;;;7.78;3.03;;;;;;;;;;6121848;23;20194;-92
2023/09/20 21:44:26;;;;;;;4.43;2.75;;;;;;;;;;6124057;23;20165;-93
2023/09/20 21:47:32;;;;;;;6.32;3.03;;;;;;;;;;6121476;23;20168;-90
2023/09/20 21:50:37;;;;;;;11.32;3.05;;;;;;;;;;6139583;23;20201;-91
2023/09/20 21:53:45;;;;;;;3.72;2.60;;;;;;;;;;6121938;23;20313;-93
2023/09/20 21:56:50;;;;;;;5.82;3.10;;;;;;;;;;6122596;23;20173;-93
2023/09/20 21:59:57;;;;;;;11.40;3.03;;;;;;;;;;6122734;23;20227;-92
2023/09/20 22:03:04;;;;;;;5.82;3.35;;;;;;;;;;6120938;23;20190;-93
2023/09/20 22:06:11;;;;;;;7.38;3.90;;;;;;;;;;6121881;23;20161;-94
2023/09/20 22:09:19;;;;;;;9.57;3.70;;;;;;;;;;6125151;23;20244;-93
2023/09/20 22:12:24;;;;;;;9.02;3.17;;;;;;;;;;6122167;23;20336;-92
2023/09/20 22:15:32;;;;;;;7.13;3.55;;;;;;;;;;6120598;23;20168;-93
2023/09/20 22:18:38;;;;;;;9.75;3.60;;;;;;;;;;6122510;23;20221;-94
2023/09/20 22:21:47;;;;;;;8.98;3.40;;;;;;;;;;6120946;23;20181;-94
2023/09/20 22:24:54;;;;;;;6.18;3.20;;;;;;;;;;6121489;23;20182;-94
2023/09/20 22:28:00;;;;;;;10.23;3.13;;;;;;;;;;6120322;23;20185;-91
2023/09/20 22:31:06;;;;;;;10.07;3.30;;;;;;;;;;6119675;23;20192;-92
2023/09/20 22:34:14;;;;;;;7.63;3.45;;;;;;;;;;6121008;23;20197;-93
2023/09/20 22:37:21;;;;;;;6.70;3.45;;;;;;;;;;6119426;23;20176;-93
2023/09/20 22:40:29;;;;;;;7.50;2.85;;;;;;;;;;6119760;23;20173;-89
2023/09/20 22:43:34;;;;;;;9.60;3.17;;;;;;;;;;6121806;23;20638;-91
2023/09/20 22:46:40;;;;;;;5.95;3.15;;;;;;;;;;6122302;23;20177;-93
2023/09/20 22:49:46;;;;;;;7.13;2.65;;;;;;;;;;6121925;23;20177;-93
2023/09/20 22:52:51;;;;;;;11.13;3.03;;;;;;;;;;6138832;23;20177;-94
2023/09/20 22:55:57;;;;;;;6.20;3.22;;;;;;;;;;6121147;23;20624;-89
2023/09/20 22:59:02;;;;;;;7.47;3.20;;;;;;;;;;6121059;23;20172;-93
2023/09/20 23:02:08;;;;;;;10.18;3.53;;;;;;;;;;6119309;23;20165;-92
2023/09/20 23:05:15;;;;;;;7.32;3.17;;;;;;;;;;6108636;23;20193;-94
2023/09/20 23:08:22;;;;;;;7.43;2.92;;;;;;;;;;6108864;23;20169;-88
2023/09/20 23:11:32;;;;;;;6.15;3.17;;;;;;;;;;6106430;23;20261;-91
2023/09/20 23:14:38;;;;;;;5.00;2.97;;;;;;;;;;6108610;23;20255;-93
2023/09/20 23:17:46;;;;;;;7.65;3.38;;;;;;;;;;6109616;23;20174;-93
2023/09/20 23:20:54;;;;;;;5.57;3.00;;;;;;;;;;6111153;23;20302;-91
2023/09/20 23:23:59;;;;;;;13.30;3.47;;;;;;;;;;6111098;23;20173;-89
2023/09/20 23:27:07;;;;;;;6.05;3.10;;;;;;;;;;6110917;23;20170;-92
2023/09/20 23:30:12;;;;;;;11.57;3.72;;;;;;;;;;6110505;23;20177;-93
2023/09/20 23:33:21;;;;;;;7.50;3.45;;;;;;;;;;6109806;23;20173;-93
2023/09/20 23:36:26;;;;;;;6.50;2.90;;;;;;;;;;6109629;23;20218;-95
2023/09/20 23:39:31;;;;;;;5.03;3.00;;;;;;;;;;6108024;23;20237;-88
2023/09/20 23:42:38;;;;;;;8.93;3.40;;;;;;;;;;6109650;23;20170;-90
2023/09/20 23:45:43;;;;;;;10.90;3.03;;;;;;;;;;6107980;23;20170;-92
2023/09/20 23:48:48;;;;;;;7.60;3.10;;;;;;;;;;6108598;23;20177;-92
2023/09/20 23:51:54;;;;;;;6.75;2.83;;;;;;;;;;6108637;23;20266;-94
2023/09/20 23:54:59;;;;;;;7.97;3.17;;;;;;;;;;6107929;23;20194;-94
2023/09/20 23:58:07;;;;;;;7.07;3.22;;;;;;;;;;6107018;23;20194;-92
